createdAt,value
2022-11-05T00:00:37.261Z,1.20
2022-11-05T00:03:15.753Z,1.20
2022-11-05T00:05:52.220Z,1.03
2022-11-05T00:08:29.763Z,1.07
2022-11-05T00:10:58.689Z,1.00
2022-11-05T00:13:36.865Z,1.20
2022-11-05T00:16:12.969Z,1.23
2022-11-05T00:18:41.595Z,1.37
2022-11-05T00:21:29.931Z,1.20
2022-11-05T00:24:06.402Z,1.30
2022-11-05T00:26:35.358Z,1.10
2022-11-05T00:29:03.091Z,1.00
2022-11-05T00:31:30.759Z,1.20
2022-11-05T00:33:58.439Z,1.10
2022-11-05T00:36:26.088Z,1.07
2022-11-05T00:38:53.764Z,1.03
2022-11-05T00:41:21.407Z,1.07
2022-11-05T00:44:00.118Z,1.10
2022-11-05T00:46:27.770Z,1.20
2022-11-05T00:49:09.374Z,1.00
2022-11-05T00:51:37.042Z,1.27
2022-11-05T00:56:49.995Z,1.20
2022-11-05T00:59:18.879Z,1.20
2022-11-05T01:01:46.657Z,1.10
2022-11-05T01:04:14.405Z,1.10
2022-11-05T01:06:42.034Z,0.97
2022-11-05T01:09:09.646Z,1.10
2022-11-05T01:11:37.637Z,1.10
2022-11-05T01:14:06.315Z,1.00
2022-11-05T01:16:35.610Z,0.80
2022-11-05T01:19:04.047Z,0.80
2022-11-05T01:21:32.562Z,0.83
2022-11-05T01:24:00.414Z,0.70
2022-11-05T01:26:28.257Z,0.70
2022-11-05T01:28:56.955Z,0.77
2022-11-05T01:31:24.935Z,0.60
2022-11-05T01:33:54.323Z,0.77
2022-11-05T01:36:22.033Z,0.63
2022-11-05T01:38:49.686Z,0.63
2022-11-05T01:41:17.312Z,0.80
2022-11-05T01:43:47.300Z,0.80
2022-11-05T01:46:15.248Z,0.70
2022-11-05T01:48:42.966Z,0.70
2022-11-05T01:51:13.965Z,0.70
2022-11-05T01:53:44.370Z,0.80
2022-11-05T01:56:14.320Z,0.80
2022-11-05T01:58:44.171Z,0.60
2022-11-05T02:01:12.434Z,0.70
2022-11-05T02:03:40.912Z,0.77
2022-11-05T02:06:09.384Z,0.70
2022-11-05T02:08:45.176Z,0.70
2022-11-05T02:11:13.880Z,0.80
2022-11-05T02:13:41.664Z,0.90
2022-11-05T02:16:12.503Z,0.80
2022-11-05T02:18:43.892Z,0.80
2022-11-05T02:21:21.246Z,0.80
2022-11-05T02:24:01.779Z,0.80
2022-11-05T02:26:40.791Z,0.80
2022-11-05T02:29:23.567Z,0.70
2022-11-05T02:31:55.812Z,0.70
2022-11-05T02:34:27.039Z,0.70
2022-11-05T02:36:57.636Z,0.70
2022-11-05T02:39:32.478Z,0.80
2022-11-05T02:42:05.999Z,0.80
2022-11-05T02:44:36.696Z,0.70
2022-11-05T02:47:11.873Z,0.90
2022-11-05T02:49:45.038Z,0.80
2022-11-05T02:52:16.466Z,0.80
2022-11-05T02:54:45.765Z,0.90
2022-11-05T02:57:13.409Z,0.80
2022-11-05T02:59:41.074Z,0.90
2022-11-05T03:02:10.116Z,0.80
2022-11-05T03:04:37.938Z,0.90
2022-11-05T03:07:10.902Z,0.90
2022-11-05T03:09:49.256Z,0.90
2022-11-05T03:12:22.401Z,0.90
2022-11-05T03:14:56.066Z,0.90
2022-11-05T03:17:30.348Z,0.90
2022-11-05T03:20:00.634Z,1.00
2022-11-05T03:22:31.895Z,1.10
2022-11-05T03:25:03.283Z,1.17
2022-11-05T03:27:32.554Z,0.80
2022-11-05T03:30:02.236Z,1.20
2022-11-05T03:32:32.895Z,1.00
2022-11-05T03:35:02.753Z,0.90
2022-11-05T03:37:34.840Z,1.00
2022-11-05T03:40:04.414Z,1.20
2022-11-05T03:42:33.685Z,1.20
2022-11-05T03:45:03.873Z,1.20
2022-11-05T03:47:36.744Z,1.10
2022-11-05T03:50:08.617Z,1.20
2022-11-05T03:52:39.074Z,1.10
2022-11-05T03:55:06.867Z,1.20
2022-11-05T03:57:37.494Z,1.17
2022-11-05T04:00:07.685Z,1.20
2022-11-05T04:02:40.706Z,1.30
2022-11-05T04:05:09.184Z,1.03
2022-11-05T04:07:45.457Z,1.07
2022-11-05T04:10:22.981Z,1.20
2022-11-05T04:12:59.190Z,1.40
2022-11-05T04:15:27.123Z,1.40
2022-11-05T04:17:58.687Z,1.30
2022-11-05T04:20:40.456Z,1.30
2022-11-05T04:23:18.710Z,1.20
2022-11-05T04:25:46.386Z,1.43
2022-11-05T04:28:15.038Z,1.30
2022-11-05T04:30:41.898Z,1.20
2022-11-05T04:33:12.361Z,1.33
2022-11-05T04:36:00.227Z,1.10
2022-11-05T04:38:27.859Z,1.00
2022-11-05T04:41:12.582Z,1.10
2022-11-05T04:43:40.347Z,1.20
2022-11-05T04:46:08.009Z,1.17
2022-11-05T04:48:37.595Z,1.00
2022-11-05T04:51:05.290Z,0.90
2022-11-05T04:53:32.973Z,1.20
2022-11-05T04:56:09.628Z,1.20
2022-11-05T04:58:39.481Z,1.10
2022-11-05T05:01:07.218Z,1.10
2022-11-05T05:03:35.142Z,1.10
2022-11-05T05:06:04.332Z,1.30
2022-11-05T05:08:31.961Z,1.20
2022-11-05T05:11:01.669Z,1.07
2022-11-05T05:13:29.428Z,1.13
2022-11-05T05:15:57.369Z,1.27
2022-11-05T05:18:25.396Z,1.33
2022-11-05T05:21:04.791Z,1.20
2022-11-05T05:23:33.747Z,1.30
2022-11-05T05:26:01.401Z,1.40
2022-11-05T05:28:29.086Z,1.23
2022-11-05T05:30:59.413Z,1.40
2022-11-05T05:33:27.105Z,1.40
2022-11-05T05:35:54.766Z,1.40
2022-11-05T05:38:22.417Z,1.40
2022-11-05T05:40:51.677Z,1.27
2022-11-05T05:43:19.333Z,1.73
2022-11-05T05:45:47.007Z,1.60
2022-11-05T05:48:14.682Z,1.40
2022-11-05T05:50:42.324Z,1.40
2022-11-05T05:53:10.379Z,1.30
2022-11-05T05:55:38.357Z,1.30
2022-11-05T05:58:07.340Z,1.33
2022-11-05T06:00:35.442Z,1.50
2022-11-05T06:03:03.167Z,1.30
2022-11-05T06:05:30.826Z,1.20
2022-11-05T06:07:58.841Z,1.17
2022-11-05T06:10:26.730Z,1.57
2022-11-05T06:12:54.555Z,1.70
2022-11-05T06:15:23.473Z,1.50
2022-11-05T06:17:51.142Z,1.17
2022-11-05T06:20:18.923Z,1.10
2022-11-05T06:22:54.820Z,1.10
2022-11-05T06:25:22.490Z,1.10
2022-11-05T06:27:50.194Z,1.33
2022-11-05T06:30:18.074Z,1.37
2022-11-05T06:32:46.950Z,1.50
2022-11-05T06:35:14.655Z,1.30
2022-11-05T06:37:43.004Z,1.63
2022-11-05T06:40:10.922Z,1.40
2022-11-05T06:42:38.625Z,1.43
2022-11-05T06:45:06.837Z,1.40
2022-11-05T06:47:34.501Z,1.20
2022-11-05T06:50:03.456Z,1.40
2022-11-05T06:52:31.252Z,1.50
2022-11-05T06:54:59.497Z,1.60
2022-11-05T06:57:27.227Z,1.57
2022-11-05T07:00:00.628Z,1.50
2022-11-05T07:02:30.801Z,1.37
2022-11-05T07:04:58.425Z,1.63
2022-11-05T07:07:27.355Z,1.60
2022-11-05T07:09:55.197Z,1.50
2022-11-05T07:12:22.934Z,1.60
2022-11-05T07:14:50.629Z,1.53
2022-11-05T07:17:18.460Z,1.90
2022-11-05T07:19:46.083Z,1.87
2022-11-05T07:22:13.766Z,1.93
2022-11-05T07:24:42.686Z,1.40
2022-11-05T07:27:10.357Z,1.53
2022-11-05T07:29:38.219Z,1.60
2022-11-05T07:32:06.271Z,1.43
2022-11-05T07:34:34.107Z,1.53
2022-11-05T07:37:01.840Z,1.50
2022-11-05T07:39:29.470Z,1.50
2022-11-05T07:41:58.670Z,0.97
2022-11-05T07:44:33.224Z,1.10
2022-11-05T07:47:00.853Z,1.23
2022-11-05T07:49:28.525Z,1.60
2022-11-05T07:51:56.168Z,1.40
2022-11-05T07:54:26.427Z,2.07
2022-11-05T07:56:54.183Z,1.27
2022-11-05T07:59:23.218Z,1.13
2022-11-05T08:01:51.070Z,1.00
2022-11-05T08:04:18.802Z,1.10
2022-11-05T08:06:46.442Z,1.07
2022-11-05T08:09:14.075Z,1.10
2022-11-05T08:11:41.813Z,0.90
2022-11-05T08:14:09.507Z,0.80
2022-11-05T08:16:38.483Z,0.80
2022-11-05T08:19:06.442Z,0.73
2022-11-05T08:21:34.119Z,1.00
2022-11-05T08:24:01.784Z,0.90
2022-11-05T08:26:29.489Z,1.10
2022-11-05T08:28:57.270Z,1.00
2022-11-05T08:31:24.917Z,1.00
2022-11-05T08:33:59.683Z,1.00
2022-11-05T08:36:30.161Z,1.13
2022-11-05T08:38:57.923Z,1.00
2022-11-05T08:41:26.613Z,1.00
2022-11-05T08:43:55.556Z,1.30
2022-11-05T08:46:23.662Z,1.10
2022-11-05T08:48:51.345Z,1.43
2022-11-05T08:51:20.473Z,1.00
2022-11-05T08:53:48.344Z,1.13
2022-11-05T08:56:16.298Z,1.10
2022-11-05T08:58:43.921Z,1.43
2022-11-05T09:01:11.677Z,1.10
2022-11-05T09:03:39.378Z,0.90
2022-11-05T09:06:07.162Z,0.80
2022-11-05T09:08:36.170Z,1.13
2022-11-05T09:11:04.091Z,1.00
2022-11-05T09:13:31.817Z,1.00
2022-11-05T09:15:59.922Z,1.10
2022-11-05T09:18:27.536Z,1.10
2022-11-05T09:20:55.225Z,0.90
2022-11-05T09:23:23.250Z,0.93
2022-11-05T09:25:52.652Z,1.27
2022-11-05T09:28:22.053Z,1.07
2022-11-05T09:30:50.791Z,1.00
2022-11-05T09:33:19.364Z,1.10
2022-11-05T09:35:47.448Z,0.87
2022-11-05T09:38:15.535Z,0.90
2022-11-05T09:40:46.935Z,0.90
2022-11-05T09:43:18.909Z,1.37
2022-11-05T09:45:48.058Z,0.93
2022-11-05T09:48:17.202Z,1.30
2022-11-05T09:50:46.576Z,1.00
2022-11-05T09:53:16.285Z,1.13
2022-11-05T09:55:45.813Z,1.33
2022-11-05T09:58:15.822Z,1.10
2022-11-05T10:00:48.525Z,1.50
2022-11-05T10:03:18.920Z,1.17
2022-11-05T10:05:50.281Z,1.10
2022-11-05T10:08:20.968Z,1.00
2022-11-05T10:10:50.262Z,1.20
2022-11-05T10:13:22.544Z,1.10
2022-11-05T10:15:54.849Z,1.30
2022-11-05T10:18:25.534Z,1.30
2022-11-05T10:20:53.304Z,1.30
2022-11-05T10:23:22.099Z,1.40
2022-11-05T10:25:52.064Z,1.40
2022-11-05T10:28:20.846Z,1.30
2022-11-05T10:30:50.580Z,1.43
2022-11-05T10:33:23.481Z,1.70
2022-11-05T10:35:52.066Z,1.20
2022-11-05T10:38:19.781Z,1.13
2022-11-05T10:40:53.655Z,1.30
2022-11-05T10:43:25.924Z,1.23
2022-11-05T10:45:57.177Z,1.17
2022-11-05T10:48:31.714Z,0.90
2022-11-05T10:50:59.878Z,1.20
2022-11-05T10:53:29.859Z,1.03
2022-11-05T10:55:58.433Z,1.03
2022-11-05T10:58:28.890Z,0.93
2022-11-05T11:01:02.477Z,0.80
2022-11-05T11:03:34.166Z,0.90
2022-11-05T11:06:02.733Z,0.90
2022-11-05T11:08:31.610Z,0.87
2022-11-05T11:11:00.451Z,1.03
2022-11-05T11:13:28.708Z,1.07
2022-11-05T11:15:56.483Z,1.17
2022-11-05T11:18:26.423Z,0.80
2022-11-05T11:21:05.330Z,0.80
2022-11-05T11:23:37.317Z,0.80
2022-11-05T11:26:05.477Z,0.90
2022-11-05T11:28:34.746Z,0.80
2022-11-05T11:31:05.287Z,0.80
2022-11-05T11:33:34.008Z,0.70
2022-11-05T11:36:03.335Z,0.80
2022-11-05T11:38:31.859Z,0.97
2022-11-05T11:41:01.307Z,0.73
2022-11-05T11:43:30.455Z,0.80
2022-11-05T11:46:04.849Z,0.97
2022-11-05T11:48:36.355Z,0.80
2022-11-05T11:51:18.043Z,0.70
2022-11-05T11:53:47.967Z,0.70
2022-11-05T11:56:16.781Z,0.70
2022-11-05T11:58:45.750Z,0.80
2022-11-05T12:01:21.265Z,0.60
2022-11-05T12:03:50.604Z,0.70
2022-11-05T12:06:26.026Z,0.70
2022-11-05T12:09:02.064Z,0.70
2022-11-05T12:11:37.358Z,0.70
2022-11-05T12:14:09.431Z,0.93
2022-11-05T12:16:50.611Z,0.70
2022-11-05T12:19:23.250Z,0.90
2022-11-05T12:21:55.439Z,0.77
2022-11-05T12:24:31.506Z,0.80
2022-11-05T12:27:03.832Z,1.07
2022-11-05T12:29:36.886Z,0.60
2022-11-05T12:32:13.578Z,0.80
2022-11-05T12:34:48.934Z,0.67
2022-11-05T12:37:22.545Z,0.70
2022-11-05T12:39:57.279Z,0.90
2022-11-05T12:42:32.661Z,0.80
2022-11-05T12:45:02.967Z,1.00
2022-11-05T12:47:37.287Z,1.53
2022-11-05T12:50:12.535Z,1.03
2022-11-05T12:52:52.611Z,0.87
2022-11-05T12:55:23.007Z,1.50
2022-11-05T12:57:52.862Z,0.90
2022-11-05T13:00:21.469Z,1.10
2022-11-05T13:02:52.073Z,1.00
2022-11-05T13:05:21.980Z,0.90
2022-11-05T13:07:55.081Z,0.80
2022-11-05T13:10:27.073Z,0.70
2022-11-05T13:12:59.075Z,0.70
2022-11-05T13:15:28.758Z,0.63
2022-11-05T13:17:59.914Z,0.70
2022-11-05T13:20:29.975Z,0.83
2022-11-05T13:23:01.038Z,0.70
2022-11-05T13:25:29.581Z,0.97
2022-11-05T13:28:00.790Z,0.80
2022-11-05T13:30:31.308Z,0.70
2022-11-05T13:33:01.086Z,0.90
2022-11-05T13:35:31.420Z,0.97
2022-11-05T13:38:13.056Z,0.73
2022-11-05T13:40:44.953Z,0.68
2022-11-05T13:43:18.494Z,1.17
2022-11-05T13:45:53.094Z,0.80
2022-11-05T13:48:31.405Z,0.70
2022-11-05T13:51:08.602Z,0.80
2022-11-05T13:53:42.908Z,0.80
2022-11-05T13:56:18.381Z,0.80
2022-11-05T13:58:50.705Z,0.73
2022-11-05T14:01:24.720Z,0.80
2022-11-05T14:03:54.533Z,1.10
2022-11-05T14:06:24.703Z,0.87
2022-11-05T14:08:56.851Z,0.90
2022-11-05T14:11:27.169Z,0.90
2022-11-05T14:13:56.609Z,1.00
2022-11-05T14:16:25.411Z,0.85
2022-11-05T14:18:54.929Z,0.90
2022-11-05T14:21:30.330Z,0.90
2022-11-05T14:24:00.141Z,1.00
2022-11-05T14:26:28.435Z,1.00
2022-11-05T14:29:10.991Z,1.00
2022-11-05T14:34:45.571Z,1.17
2022-11-05T14:37:23.377Z,1.10
2022-11-05T14:39:53.306Z,1.20
2022-11-05T14:42:23.242Z,1.30
2022-11-05T14:45:00.409Z,1.17
2022-11-05T14:47:29.318Z,1.08
2022-11-05T14:49:59.321Z,1.08
2022-11-05T14:52:27.034Z,1.13
2022-11-05T14:54:57.177Z,1.00
2022-11-05T14:57:36.053Z,1.00
2022-11-05T15:00:05.053Z,0.98
2022-11-05T15:02:34.612Z,1.20
2022-11-05T15:05:12.209Z,1.10
2022-11-05T15:07:41.707Z,1.40
2022-11-05T15:10:13.416Z,1.20
2022-11-05T15:13:03.690Z,1.30
2022-11-05T15:15:33.026Z,1.23
2022-11-05T15:18:02.501Z,1.60
2022-11-05T15:20:39.778Z,1.40
2022-11-05T15:23:10.855Z,1.47
2022-11-05T15:25:45.780Z,1.53
2022-11-05T15:28:19.286Z,1.60
2022-11-05T15:31:02.749Z,1.30
2022-11-05T15:33:31.253Z,1.40
2022-11-05T15:36:09.389Z,1.40
2022-11-05T15:38:37.422Z,1.50
2022-11-05T15:41:07.667Z,1.60
2022-11-05T15:43:35.335Z,1.73
2022-11-05T15:46:04.423Z,1.23
2022-11-05T15:48:32.533Z,1.50
2022-11-05T15:51:00.403Z,1.40
2022-11-05T15:56:22.562Z,1.80
2022-11-05T15:58:51.185Z,1.33
2022-11-05T16:01:20.487Z,1.60
2022-11-05T16:03:48.622Z,1.80
2022-11-05T16:06:16.510Z,1.30
2022-11-05T16:08:48.268Z,1.40
2022-11-05T16:11:23.148Z,1.50
2022-11-05T16:13:51.625Z,1.70
2022-11-05T16:16:25.430Z,1.70
2022-11-05T16:18:53.423Z,1.57
2022-11-05T16:21:23.041Z,1.70
2022-11-05T16:23:54.375Z,1.77
2022-11-05T16:26:55.835Z,1.70
2022-11-05T16:29:17.785Z,1.20
2022-11-05T16:31:49.799Z,1.60
2022-11-05T16:34:25.489Z,1.70
2022-11-05T16:36:54.875Z,1.60
2022-11-05T16:39:22.559Z,1.30
2022-11-05T16:41:51.723Z,1.37
2022-11-05T16:44:19.397Z,1.30
2022-11-05T16:46:48.312Z,2.70
2022-11-05T16:49:16.549Z,2.50
2022-11-05T16:51:44.432Z,2.87
2022-11-05T16:54:12.145Z,2.90
2022-11-05T16:56:41.657Z,2.23
2022-11-05T16:59:12.125Z,1.63
2022-11-05T17:01:41.404Z,1.80
2022-11-05T17:04:09.645Z,2.73
2022-11-05T17:06:37.384Z,2.57
2022-11-05T17:09:05.095Z,2.13
2022-11-05T17:11:32.892Z,2.60
2022-11-05T17:14:00.585Z,3.33
2022-11-05T17:16:30.281Z,2.87
2022-11-05T17:18:57.960Z,2.30
2022-11-05T17:21:25.672Z,2.80
2022-11-05T17:23:53.390Z,2.33
2022-11-05T17:26:21.159Z,2.13
2022-11-05T17:28:48.854Z,2.13
2022-11-05T17:31:17.331Z,2.13
2022-11-05T17:33:46.343Z,2.47
2022-11-05T17:36:16.126Z,2.43
2022-11-05T17:38:44.360Z,2.23
2022-11-05T17:41:12.506Z,2.73
2022-11-05T17:43:40.453Z,3.10
2022-11-05T17:46:09.213Z,2.20
2022-11-05T17:48:54.900Z,1.77
2022-11-05T17:51:23.828Z,2.63
2022-11-05T17:53:51.603Z,2.13
2022-11-05T17:56:30.559Z,2.70
2022-11-05T17:59:00.651Z,2.20
2022-11-05T18:01:29.216Z,2.20
2022-11-05T18:03:57.169Z,1.90
2022-11-05T18:06:26.242Z,2.30
2022-11-05T18:08:53.974Z,2.53
2022-11-05T18:11:21.733Z,2.50
2022-11-05T18:13:49.382Z,2.30
2022-11-05T18:16:17.209Z,2.30
2022-11-05T18:18:44.900Z,2.17
2022-11-05T18:21:12.544Z,1.80
2022-11-05T18:23:41.595Z,2.10
2022-11-05T18:26:09.873Z,2.00
2022-11-05T18:28:38.102Z,2.20
2022-11-05T18:31:08.358Z,1.93
2022-11-05T18:33:36.296Z,1.80
2022-11-05T18:36:04.026Z,2.43
2022-11-05T18:38:31.679Z,1.60
2022-11-05T18:41:05.771Z,2.33
2022-11-05T18:43:33.689Z,2.57
2022-11-05T18:46:01.341Z,1.97
2022-11-05T18:48:29.126Z,2.10
2022-11-05T18:51:01.638Z,1.90
2022-11-05T18:53:30.058Z,1.97
2022-11-05T18:55:57.794Z,2.47
2022-11-05T18:58:27.654Z,1.90
2022-11-05T19:00:55.277Z,1.53
2022-11-05T19:03:23.045Z,1.80
2022-11-05T19:05:50.710Z,1.87
2022-11-05T19:08:18.420Z,2.20
2022-11-05T19:10:49.815Z,1.83
2022-11-05T19:13:17.758Z,1.63
2022-11-05T19:15:46.876Z,2.07
2022-11-05T19:18:14.889Z,2.17
2022-11-05T19:20:42.710Z,2.50
2022-11-05T19:23:10.650Z,2.47
2022-11-05T19:25:38.486Z,2.00
2022-11-05T19:28:06.175Z,1.97
2022-11-05T19:30:33.940Z,1.80
2022-11-05T19:33:03.110Z,2.43
2022-11-05T19:35:32.913Z,2.17
2022-11-05T19:38:02.322Z,2.93
2022-11-05T19:40:30.002Z,2.47
2022-11-05T19:42:57.686Z,2.57
2022-11-05T19:48:19.088Z,2.43
2022-11-05T19:50:47.829Z,2.90
2022-11-05T19:53:15.527Z,2.77
2022-11-05T19:55:44.918Z,4.10
2022-11-05T19:58:13.143Z,2.30
2022-11-05T20:00:41.092Z,2.17
2022-11-05T20:03:09.089Z,2.30
2022-11-05T20:05:38.414Z,1.73
2022-11-05T20:08:06.114Z,1.70
2022-11-05T20:10:37.031Z,2.07
2022-11-05T20:13:04.716Z,1.80
2022-11-05T20:15:32.522Z,1.77
2022-11-05T20:18:00.280Z,2.57
2022-11-05T20:20:27.959Z,2.57
2022-11-05T20:22:57.669Z,2.50
2022-11-05T20:25:25.330Z,2.13
2022-11-05T20:27:53.023Z,2.33
2022-11-05T20:30:20.691Z,2.70
2022-11-05T20:32:48.383Z,2.97
2022-11-05T20:35:16.085Z,2.27
2022-11-05T20:37:43.828Z,2.10
2022-11-05T20:40:14.557Z,2.20
2022-11-05T20:42:42.596Z,1.80
2022-11-05T20:45:11.932Z,2.27
2022-11-05T20:47:39.592Z,2.30
2022-11-05T20:50:26.058Z,2.00
2022-11-05T20:52:53.783Z,2.47
2022-11-05T20:55:22.826Z,2.40
2022-11-05T20:57:50.754Z,2.63
2022-11-05T21:00:18.601Z,1.90
2022-11-05T21:02:46.449Z,1.93
2022-11-05T21:05:14.285Z,1.90
2022-11-05T21:07:42.090Z,2.13
2022-11-05T21:10:09.958Z,2.47
2022-11-05T21:12:38.964Z,2.10
2022-11-05T21:15:07.139Z,2.03
2022-11-05T21:17:34.762Z,2.10
2022-11-05T21:20:02.430Z,1.63
2022-11-05T21:22:31.011Z,1.80
2022-11-05T21:24:58.677Z,2.00
2022-11-05T21:27:26.561Z,2.60
2022-11-05T21:29:55.527Z,2.37
2022-11-05T21:32:23.147Z,3.20
2022-11-05T21:34:50.790Z,2.30
2022-11-05T21:37:19.581Z,2.30
2022-11-05T21:39:47.294Z,1.77
2022-11-05T21:42:14.925Z,2.00
2022-11-05T21:44:42.637Z,1.50
2022-11-05T21:47:30.470Z,1.60
2022-11-05T21:49:58.301Z,1.97
2022-11-05T21:52:35.121Z,1.70
2022-11-05T21:55:12.054Z,1.47
2022-11-05T21:57:49.232Z,1.60
2022-11-05T22:00:16.922Z,1.70
2022-11-05T22:02:45.999Z,2.33
2022-11-05T22:05:15.162Z,2.43
2022-11-05T22:07:42.767Z,1.30
2022-11-05T22:10:16.208Z,1.70
2022-11-05T22:12:44.331Z,1.40
2022-11-05T22:15:12.426Z,1.53
2022-11-05T22:17:45.289Z,1.60
2022-11-05T22:20:15.708Z,3.00
2022-11-05T22:22:43.643Z,2.67
2022-11-05T22:25:12.820Z,2.40
2022-11-05T22:27:40.521Z,2.40
2022-11-05T22:30:08.517Z,2.23
2022-11-05T22:32:36.159Z,1.47
2022-11-05T22:35:03.930Z,1.30
2022-11-05T22:37:32.888Z,1.20
2022-11-05T22:40:00.767Z,1.30
2022-11-05T22:42:28.497Z,1.50
2022-11-05T22:44:56.198Z,1.73
2022-11-05T22:47:23.830Z,1.93
2022-11-05T22:49:51.554Z,1.73
2022-11-05T22:52:19.179Z,1.70
2022-11-05T22:54:48.661Z,1.80
2022-11-05T22:57:16.448Z,1.60
2022-11-05T22:59:44.169Z,1.43
2022-11-05T23:02:12.046Z,1.40
2022-11-05T23:04:39.820Z,1.30
2022-11-05T23:10:12.527Z,1.60
2022-11-05T23:12:42.626Z,1.37
2022-11-05T23:15:30.325Z,1.57
2022-11-05T23:18:07.678Z,1.53
2022-11-05T23:20:49.226Z,1.30
2022-11-05T23:23:27.503Z,1.77
2022-11-05T23:25:58.667Z,1.77
2022-11-05T23:28:26.681Z,1.70
2022-11-05T23:31:04.833Z,1.40
2022-11-05T23:33:34.641Z,1.63
2022-11-05T23:36:12.655Z,1.50
2022-11-05T23:38:40.543Z,1.20
2022-11-05T23:41:23.631Z,1.40
2022-11-05T23:44:01.747Z,1.50
2022-11-05T23:46:38.977Z,1.57
2022-11-05T23:49:06.644Z,1.90
2022-11-05T23:51:34.293Z,1.30
2022-11-05T23:54:01.949Z,1.47
2022-11-05T23:56:31.952Z,1.40
2022-11-05T23:58:59.629Z,1.17
